createdAt,value
2018-11-25T00:00:49.911Z,22.60
2018-11-25T00:03:19.482Z,23.13
2018-11-25T00:05:47.668Z,22.97
2018-11-25T00:08:15.912Z,23.17
2018-11-25T00:10:44.063Z,22.40
2018-11-25T00:13:12.250Z,22.57
2018-11-25T00:15:40.431Z,23.33
2018-11-25T00:18:08.643Z,24.07
2018-11-25T00:20:36.995Z,23.47
2018-11-25T00:23:05.957Z,22.67
2018-11-25T00:25:34.143Z,24.50
2018-11-25T00:28:02.557Z,24.30
2018-11-25T00:30:30.743Z,24.20
2018-11-25T00:32:58.945Z,23.27
2018-11-25T00:35:27.315Z,25.73
2018-11-25T00:37:55.548Z,23.30
2018-11-25T00:40:23.771Z,23.60
2018-11-25T00:42:51.956Z,25.67
2018-11-25T00:45:20.567Z,24.47
2018-11-25T00:47:49.561Z,24.30
2018-11-25T00:50:18.435Z,23.03
2018-11-25T00:52:46.622Z,24.03
2018-11-25T00:55:16.649Z,22.70
2018-11-25T00:57:44.921Z,23.50
2018-11-25T01:00:17.905Z,26.17
2018-11-25T01:02:46.838Z,23.90
2018-11-25T01:05:15.240Z,23.77
2018-11-25T01:07:43.539Z,24.73
2018-11-25T01:10:13.827Z,24.07
2018-11-25T01:12:42.130Z,24.83
2018-11-25T01:15:15.019Z,25.40
2018-11-25T01:17:43.364Z,25.40
2018-11-25T01:20:13.701Z,24.90
2018-11-25T01:22:41.943Z,24.87
2018-11-25T01:25:10.986Z,24.40
2018-11-25T01:27:39.215Z,25.43
2018-11-25T01:30:15.340Z,23.97
2018-11-25T01:32:43.585Z,25.33
2018-11-25T01:35:12.271Z,25.73
2018-11-25T01:37:40.498Z,24.63
2018-11-25T01:40:14.532Z,24.70
2018-11-25T01:42:42.708Z,25.13
2018-11-25T01:45:13.014Z,24.67
2018-11-25T01:47:41.188Z,24.60
2018-11-25T01:50:10.701Z,27.37
2018-11-25T01:52:39.061Z,25.97
2018-11-25T01:55:09.157Z,25.90
2018-11-25T01:57:37.343Z,25.93
2018-11-25T02:00:09.557Z,24.70
2018-11-25T02:02:42.768Z,26.07
2018-11-25T02:05:10.961Z,25.63
2018-11-25T02:07:39.630Z,26.93
2018-11-25T02:10:09.833Z,27.27
2018-11-25T02:12:38.039Z,26.63
2018-11-25T02:15:08.007Z,26.17
2018-11-25T02:17:36.408Z,26.87
2018-11-25T02:20:08.874Z,25.77
2018-11-25T02:22:37.096Z,27.27
2018-11-25T02:25:06.352Z,26.13
2018-11-25T02:27:34.567Z,25.37
2018-11-25T02:30:02.810Z,27.43
2018-11-25T02:32:31.027Z,27.53
2018-11-25T02:34:59.250Z,26.43
2018-11-25T02:37:27.430Z,28.03
2018-11-25T02:39:55.651Z,28.53
2018-11-25T02:42:24.850Z,26.53
2018-11-25T02:44:53.026Z,26.57
2018-11-25T02:47:21.355Z,27.17
2018-11-25T02:49:49.549Z,27.63
2018-11-25T02:52:17.781Z,27.57
2018-11-25T02:54:46.140Z,26.73
2018-11-25T02:57:14.340Z,27.63
2018-11-25T02:59:42.548Z,28.67
2018-11-25T03:02:10.764Z,28.57
2018-11-25T03:04:38.985Z,27.53
2018-11-25T03:07:07.252Z,28.33
2018-11-25T03:09:35.428Z,28.90
2018-11-25T03:12:03.652Z,27.50
2018-11-25T03:14:32.127Z,27.80
2018-11-25T03:17:00.411Z,28.93
2018-11-25T03:19:28.591Z,27.07
2018-11-25T03:21:56.766Z,27.47
2018-11-25T03:24:24.972Z,28.63
2018-11-25T03:26:53.157Z,26.60
2018-11-25T03:29:21.405Z,28.83
2018-11-25T03:31:49.677Z,27.67
2018-11-25T03:34:17.888Z,27.87
2018-11-25T03:36:46.066Z,28.67
2018-11-25T03:39:15.285Z,30.53
2018-11-25T03:41:43.477Z,29.23
2018-11-25T03:44:11.671Z,33.17
2018-11-25T03:46:39.869Z,29.20
2018-11-25T03:49:08.181Z,30.13
2018-11-25T03:51:36.388Z,27.93
2018-11-25T03:54:04.615Z,28.90
2018-11-25T03:56:32.792Z,29.30
2018-11-25T03:59:01.003Z,28.97
2018-11-25T04:01:29.890Z,26.57
2018-11-25T04:03:58.152Z,26.30
2018-11-25T04:06:26.368Z,27.27
2018-11-25T04:08:54.595Z,28.83
2018-11-25T04:11:22.812Z,27.33
2018-11-25T04:13:50.982Z,28.30
2018-11-25T04:16:19.339Z,27.27
2018-11-25T04:18:47.543Z,28.17
2018-11-25T04:21:15.971Z,29.17
2018-11-25T04:23:44.374Z,27.80
2018-11-25T04:26:12.551Z,29.07
2018-11-25T04:28:40.731Z,29.20
2018-11-25T04:31:09.380Z,27.80
2018-11-25T04:33:37.688Z,28.43
2018-11-25T04:36:05.877Z,27.97
2018-11-25T04:38:34.059Z,27.13
2018-11-25T04:41:02.229Z,28.60
2018-11-25T04:43:30.426Z,27.70
2018-11-25T04:45:58.661Z,26.73
2018-11-25T04:48:26.842Z,28.17
2018-11-25T04:50:55.043Z,27.30
2018-11-25T04:53:23.278Z,29.03
2018-11-25T04:55:51.525Z,30.03
2018-11-25T04:58:19.753Z,29.30
2018-11-25T05:00:47.955Z,28.33
2018-11-25T05:03:16.183Z,29.37
2018-11-25T05:05:44.408Z,28.50
2018-11-25T05:08:12.652Z,28.70
2018-11-25T05:10:40.818Z,30.43
2018-11-25T05:13:09.090Z,29.50
2018-11-25T05:15:37.960Z,28.20
2018-11-25T05:18:06.255Z,28.93
2018-11-25T05:20:34.444Z,28.80
2018-11-25T05:23:02.670Z,28.40
2018-11-25T05:25:31.153Z,28.23
2018-11-25T05:27:59.338Z,28.00
2018-11-25T05:30:27.541Z,28.73
2018-11-25T05:32:55.777Z,28.53
2018-11-25T05:35:24.084Z,28.83
2018-11-25T05:37:52.684Z,29.67
2018-11-25T05:40:20.914Z,29.00
2018-11-25T05:42:49.195Z,28.77
2018-11-25T05:45:18.184Z,28.93
2018-11-25T05:47:46.612Z,29.97
2018-11-25T05:50:16.692Z,28.67
2018-11-25T05:52:44.855Z,29.73
2018-11-25T05:55:13.288Z,28.50
2018-11-25T05:57:41.643Z,29.17
2018-11-25T06:00:21.956Z,29.27
2018-11-25T06:02:50.233Z,28.93
2018-11-25T06:05:18.413Z,27.70
2018-11-25T06:07:46.591Z,30.63
2018-11-25T06:10:14.869Z,28.47
2018-11-25T06:12:43.148Z,28.93
2018-11-25T06:15:12.286Z,27.53
2018-11-25T06:17:40.483Z,28.23
2018-11-25T06:20:11.920Z,28.67
2018-11-25T06:22:40.146Z,30.33
2018-11-25T06:25:09.732Z,29.90
2018-11-25T06:27:38.563Z,29.57
2018-11-25T06:30:10.353Z,29.33
2018-11-25T06:32:38.642Z,29.97
2018-11-25T06:35:08.254Z,28.97
2018-11-25T06:37:36.471Z,29.03
2018-11-25T06:40:07.096Z,29.37
2018-11-25T06:42:35.439Z,31.43
2018-11-25T06:45:03.651Z,28.53
2018-11-25T06:47:31.828Z,29.03
2018-11-25T06:50:00.063Z,29.40
2018-11-25T06:52:28.302Z,29.07
2018-11-25T06:54:56.542Z,28.50
2018-11-25T06:57:24.741Z,28.80
2018-11-25T06:59:52.931Z,29.13
2018-11-25T07:02:21.156Z,29.43
2018-11-25T07:04:49.373Z,28.93
2018-11-25T07:07:18.222Z,29.73
2018-11-25T07:09:46.501Z,28.97
2018-11-25T07:12:14.732Z,28.67
2018-11-25T07:14:42.967Z,30.07
2018-11-25T07:17:11.207Z,28.73
2018-11-25T07:19:39.477Z,28.60
2018-11-25T07:22:07.754Z,29.93
2018-11-25T07:24:36.010Z,31.67
2018-11-25T07:27:04.320Z,29.77
2018-11-25T07:29:32.557Z,30.47
2018-11-25T07:32:01.473Z,29.47
2018-11-25T07:34:29.637Z,29.47
2018-11-25T07:36:58.006Z,30.07
2018-11-25T07:39:26.273Z,29.70
2018-11-25T07:41:54.519Z,31.97
2018-11-25T07:44:22.692Z,32.37
2018-11-25T07:46:50.965Z,30.47
2018-11-25T07:49:19.145Z,32.30
2018-11-25T07:51:47.937Z,30.17
2018-11-25T07:54:16.146Z,30.77
2018-11-25T07:56:44.340Z,30.87
2018-11-25T07:59:12.543Z,32.03
2018-11-25T08:01:40.767Z,32.50
2018-11-25T08:04:09.129Z,32.63
2018-11-25T08:06:37.314Z,32.03
2018-11-25T08:09:07.811Z,32.57
2018-11-25T08:11:36.170Z,31.67
2018-11-25T08:14:04.493Z,32.73
2018-11-25T08:16:32.702Z,32.60
2018-11-25T08:19:01.000Z,34.50
2018-11-25T08:21:29.236Z,32.73
2018-11-25T08:23:57.511Z,32.07
2018-11-25T08:26:25.754Z,35.27
2018-11-25T08:28:54.010Z,32.93
2018-11-25T08:31:22.281Z,33.20
2018-11-25T08:33:50.524Z,32.90
2018-11-25T08:36:18.783Z,34.20
2018-11-25T08:38:47.223Z,32.20
2018-11-25T08:41:15.833Z,33.90
2018-11-25T08:43:47.549Z,34.40
2018-11-25T08:46:15.829Z,35.40
2018-11-25T08:48:49.645Z,34.27
2018-11-25T08:51:26.236Z,35.13
2018-11-25T08:53:54.497Z,35.50
2018-11-25T08:56:22.717Z,36.43
2018-11-25T08:58:50.915Z,35.33
2018-11-25T09:01:19.359Z,36.03
2018-11-25T09:03:47.744Z,36.60
2018-11-25T09:06:16.025Z,36.63
2018-11-25T09:08:44.284Z,35.73
2018-11-25T09:11:12.548Z,36.17
2018-11-25T09:13:40.725Z,37.30
2018-11-25T09:16:08.998Z,37.73
2018-11-25T09:18:37.285Z,37.80
2018-11-25T09:21:05.727Z,38.83
2018-11-25T09:23:35.117Z,37.13
2018-11-25T09:26:03.542Z,35.97
2018-11-25T09:28:32.967Z,38.83
2018-11-25T09:31:01.242Z,38.57
2018-11-25T09:33:30.589Z,37.57
2018-11-25T09:37:08.089Z,36.60
2018-11-25T09:39:36.380Z,35.80
2018-11-25T09:42:04.701Z,35.53
2018-11-25T09:44:32.979Z,37.37
2018-11-25T09:47:01.250Z,35.90
2018-11-25T09:49:29.607Z,37.17
2018-11-25T09:51:57.804Z,36.37
2018-11-25T09:54:26.080Z,35.27
2018-11-25T09:56:54.256Z,33.33
2018-11-25T09:59:22.517Z,33.30
2018-11-25T10:01:50.719Z,33.93
2018-11-25T10:04:18.932Z,32.10
2018-11-25T10:06:47.407Z,32.10
2018-11-25T10:09:16.924Z,30.53
2018-11-25T10:11:45.294Z,28.93
2018-11-25T10:14:13.637Z,30.30
2018-11-25T10:16:41.892Z,28.57
2018-11-25T10:19:10.301Z,28.70
2018-11-25T10:21:39.150Z,27.53
2018-11-25T10:24:07.403Z,26.90
2018-11-25T10:26:35.576Z,25.23
2018-11-25T10:29:03.808Z,25.43
2018-11-25T10:31:32.040Z,24.73
2018-11-25T10:34:00.370Z,25.80
2018-11-25T10:36:28.547Z,23.70
2018-11-25T10:38:57.807Z,24.57
2018-11-25T10:41:26.005Z,24.97
2018-11-25T10:46:27.610Z,25.17
2018-11-25T10:48:55.821Z,24.13
2018-11-25T10:51:24.111Z,23.67
2018-11-25T10:53:54.822Z,22.17
2018-11-25T10:56:23.263Z,24.27
2018-11-25T10:58:51.517Z,24.33
2018-11-25T11:02:02.626Z,22.80
2018-11-25T11:07:23.009Z,22.27
2018-11-25T11:21:23.968Z,22.73
2018-11-25T11:23:52.283Z,23.23
2018-11-25T11:26:25.410Z,23.70
2018-11-25T11:28:53.596Z,23.63
2018-11-25T11:31:21.809Z,25.90
2018-11-25T11:33:50.024Z,24.43
2018-11-25T11:36:18.203Z,25.73
2018-11-25T11:38:46.391Z,24.20
2018-11-25T11:41:14.698Z,25.10
2018-11-25T11:43:43.566Z,26.23
2018-11-25T11:46:11.876Z,26.70
2018-11-25T11:48:40.093Z,26.30
2018-11-25T11:51:08.254Z,27.27
2018-11-25T11:53:36.468Z,27.47
2018-11-25T11:56:04.864Z,28.60
2018-11-25T11:58:33.088Z,29.37
2018-11-25T12:01:01.273Z,28.43
2018-11-25T12:03:29.480Z,29.13
2018-11-25T12:05:57.702Z,30.77
2018-11-25T12:08:25.890Z,30.27
2018-11-25T12:10:54.109Z,31.17
2018-11-25T12:13:22.444Z,30.63
2018-11-25T12:15:50.687Z,30.77
2018-11-25T12:18:19.019Z,32.17
2018-11-25T12:20:47.243Z,30.87
2018-11-25T12:23:15.424Z,30.00
2018-11-25T12:25:43.622Z,33.17
2018-11-25T12:28:11.942Z,33.10
2018-11-25T12:30:40.175Z,34.50
2018-11-25T12:33:08.357Z,32.87
2018-11-25T12:35:36.695Z,34.50
2018-11-25T12:38:04.872Z,33.23
2018-11-25T12:40:33.069Z,33.77
2018-11-25T12:43:01.282Z,32.07
2018-11-25T12:45:29.540Z,33.97
2018-11-25T12:47:57.778Z,33.73
2018-11-25T12:50:26.765Z,32.73
2018-11-25T12:52:55.352Z,32.93
2018-11-25T12:55:24.667Z,32.27
2018-11-25T12:57:53.259Z,32.10
2018-11-25T13:00:24.716Z,32.60
2018-11-25T13:02:52.985Z,32.57
2018-11-25T13:05:21.332Z,31.77
2018-11-25T13:07:49.538Z,31.33
2018-11-25T13:10:17.732Z,31.30
2018-11-25T13:12:45.911Z,31.20
2018-11-25T13:15:14.149Z,30.47
2018-11-25T13:17:42.388Z,31.70
2018-11-25T13:20:17.868Z,31.13
2018-11-25T13:22:46.250Z,30.40
2018-11-25T13:25:16.399Z,30.80
2018-11-25T13:27:44.860Z,29.67
2018-11-25T13:30:17.306Z,28.20
2018-11-25T13:32:45.924Z,28.17
2018-11-25T13:35:14.262Z,28.60
2018-11-25T13:37:42.585Z,28.47
2018-11-25T13:40:12.146Z,28.50
2018-11-25T13:42:40.411Z,30.33
2018-11-25T13:45:07.611Z,28.17
2018-11-25T13:47:43.460Z,28.63
2018-11-25T13:50:12.337Z,27.13
2018-11-25T13:52:40.651Z,28.83
2018-11-25T13:55:17.377Z,27.70
2018-11-25T13:57:46.213Z,28.80
2018-11-25T14:00:27.059Z,28.87
2018-11-25T14:02:55.407Z,27.03
2018-11-25T14:05:23.907Z,27.27
2018-11-25T14:07:52.131Z,28.73
2018-11-25T14:10:25.043Z,29.17
2018-11-25T14:12:53.534Z,27.83
2018-11-25T14:15:21.832Z,26.93
2018-11-25T14:17:50.222Z,27.27
2018-11-25T14:20:18.839Z,28.57
2018-11-25T14:22:49.071Z,27.33
2018-11-25T14:25:18.747Z,26.23
2018-11-25T14:27:48.543Z,27.33
2018-11-25T14:30:33.809Z,27.00
2018-11-25T14:33:02.834Z,25.87
2018-11-25T14:35:31.068Z,27.17
2018-11-25T14:37:59.490Z,26.77
2018-11-25T14:40:27.874Z,26.17
2018-11-25T14:42:56.196Z,26.53
2018-11-25T14:45:24.485Z,26.23
2018-11-25T14:47:52.752Z,25.67
2018-11-25T14:50:21.126Z,26.87
2018-11-25T14:52:50.495Z,25.20
2018-11-25T14:55:19.173Z,26.77
2018-11-25T14:57:47.732Z,25.67
2018-11-25T15:00:17.253Z,24.67
2018-11-25T15:02:46.874Z,25.83
2018-11-25T15:05:17.708Z,25.97
2018-11-25T15:07:46.048Z,25.50
2018-11-25T15:10:14.412Z,25.77
2018-11-25T15:12:42.686Z,25.80
2018-11-25T15:15:12.521Z,25.67
2018-11-25T15:17:41.649Z,26.47
2018-11-25T15:20:13.675Z,24.37
2018-11-25T15:22:43.444Z,25.63
2018-11-25T15:25:17.540Z,25.67
2018-11-25T15:27:45.773Z,25.70
2018-11-25T15:30:31.777Z,25.40
2018-11-25T15:32:59.975Z,26.43
2018-11-25T15:35:28.194Z,26.17
2018-11-25T15:37:56.475Z,25.60
2018-11-25T15:40:27.211Z,25.53
2018-11-25T15:42:55.454Z,25.93
2018-11-25T15:45:23.638Z,25.77
2018-11-25T15:47:58.615Z,26.43
2018-11-25T15:57:04.266Z,25.13
2018-11-25T15:59:32.468Z,23.10
2018-11-25T16:02:00.853Z,24.30
2018-11-25T16:07:27.961Z,22.97
2018-11-25T16:10:01.830Z,23.93
2018-11-25T16:12:52.943Z,24.40
2018-11-25T16:15:23.210Z,23.50
2018-11-25T16:17:51.384Z,23.90
2018-11-25T16:20:27.184Z,24.87
2018-11-25T16:23:06.586Z,24.47
2018-11-25T16:25:39.519Z,27.20
2018-11-25T16:28:21.332Z,30.20
2018-11-25T16:30:49.659Z,29.50
2018-11-25T16:33:17.899Z,25.80
2018-11-25T16:35:46.660Z,24.20
2018-11-25T16:38:19.845Z,23.17
2018-11-25T16:40:48.873Z,23.67
2018-11-25T16:43:17.082Z,23.77
2018-11-25T16:45:45.298Z,23.10
2018-11-25T16:48:13.589Z,23.27
2018-11-25T16:50:41.811Z,24.40
2018-11-25T16:53:10.144Z,22.60
2018-11-25T16:55:38.351Z,22.63
2018-11-25T16:58:07.139Z,23.43
2018-11-25T17:00:41.625Z,24.20
2018-11-25T17:03:09.901Z,22.73
2018-11-25T17:05:40.211Z,23.17
2018-11-25T17:08:24.416Z,22.67
2018-11-25T17:10:52.660Z,23.03
2018-11-25T17:13:21.684Z,23.93
2018-11-25T17:15:50.251Z,23.03
2018-11-25T17:18:18.885Z,22.17
2018-11-25T17:20:47.075Z,22.20
2018-11-25T17:23:15.555Z,22.77
2018-11-25T17:25:43.797Z,21.30
2018-11-25T17:28:12.053Z,20.77
2018-11-25T17:30:40.392Z,21.80
2018-11-25T17:33:09.123Z,20.63
2018-11-25T17:35:37.402Z,19.73
2018-11-25T17:38:06.013Z,20.47
2018-11-25T17:40:34.242Z,20.57
2018-11-25T17:43:02.719Z,19.90
2018-11-25T17:45:30.993Z,19.93
2018-11-25T17:47:59.378Z,20.00
2018-11-25T17:50:31.452Z,20.30
2018-11-25T17:53:01.667Z,19.60
2018-11-25T17:55:30.828Z,19.70
2018-11-25T17:57:59.223Z,21.27
2018-11-25T18:00:39.766Z,20.10
2018-11-25T18:03:17.628Z,20.17
2018-11-25T18:05:45.906Z,19.17
2018-11-25T18:08:14.163Z,19.97
2018-11-25T18:10:42.481Z,20.10
2018-11-25T18:13:11.998Z,19.30
2018-11-25T18:15:40.623Z,18.60
2018-11-25T18:18:13.695Z,20.23
2018-11-25T18:20:53.404Z,20.30
2018-11-25T18:23:22.048Z,19.10
2018-11-25T18:25:50.503Z,19.83
2018-11-25T18:28:18.715Z,19.43
2018-11-25T18:30:47.007Z,19.93
2018-11-25T18:33:15.199Z,19.83
2018-11-25T18:35:43.497Z,20.73
2018-11-25T18:38:11.779Z,18.73
2018-11-25T18:40:40.064Z,18.03
2018-11-25T18:46:04.494Z,19.07
2018-11-25T18:48:33.754Z,19.00
2018-11-25T18:51:01.911Z,17.80
2018-11-25T18:53:30.444Z,17.80
2018-11-25T18:56:01.585Z,18.10
2018-11-25T18:58:29.960Z,18.00
2018-11-25T19:01:03.183Z,18.43
2018-11-25T19:03:31.418Z,18.03
2018-11-25T19:05:59.715Z,17.17
2018-11-25T19:08:28.087Z,19.17
2018-11-25T19:10:56.405Z,19.33
2018-11-25T19:13:24.692Z,20.70
2018-11-25T19:15:52.949Z,20.67
2018-11-25T19:18:21.320Z,20.30
2018-11-25T19:20:49.724Z,19.53
2018-11-25T19:23:19.122Z,19.90
2018-11-25T19:25:47.680Z,18.87
2018-11-25T19:28:17.318Z,19.43
2018-11-25T19:30:46.042Z,19.87
2018-11-25T19:33:14.700Z,17.83
2018-11-25T19:35:44.459Z,19.70
2018-11-25T19:38:13.205Z,21.10
2018-11-25T19:40:41.816Z,22.27
2018-11-25T19:43:10.371Z,19.40
2018-11-25T19:45:38.960Z,18.67
2018-11-25T19:48:07.504Z,18.63
2018-11-25T19:50:37.423Z,18.07
2018-11-25T19:53:11.012Z,18.40
2018-11-25T19:55:40.435Z,19.03
2018-11-25T19:58:09.068Z,17.33
2018-11-25T20:00:38.030Z,18.17
2018-11-25T20:03:06.962Z,17.53
2018-11-25T20:05:35.602Z,17.53
2018-11-25T20:08:05.605Z,16.93
2018-11-25T20:10:34.160Z,17.00
2018-11-25T20:13:02.656Z,17.27
2018-11-25T20:15:31.880Z,17.57
2018-11-25T20:18:00.347Z,16.23
2018-11-25T20:20:29.917Z,17.03
2018-11-25T20:22:58.236Z,16.63
2018-11-25T20:25:26.500Z,15.23
2018-11-25T20:27:55.787Z,15.97
2018-11-25T20:30:28.970Z,15.83
2018-11-25T20:33:02.512Z,15.77
2018-11-25T20:35:30.822Z,16.83
2018-11-25T20:38:04.869Z,16.07
2018-11-25T20:40:34.690Z,17.37
2018-11-25T20:43:03.149Z,14.70
2018-11-25T20:45:39.073Z,16.73
2018-11-25T20:48:06.562Z,16.47
2018-11-25T20:50:34.772Z,15.03
2018-11-25T20:53:08.622Z,16.17
2018-11-25T20:55:37.044Z,16.27
2018-11-25T20:58:07.074Z,16.67
2018-11-25T21:00:35.646Z,17.33
2018-11-25T21:03:03.949Z,16.37
2018-11-25T21:05:32.469Z,16.43
2018-11-25T21:08:06.960Z,17.27
2018-11-25T21:10:35.625Z,17.00
2018-11-25T21:13:03.929Z,16.60
2018-11-25T21:15:33.701Z,16.70
2018-11-25T21:18:02.504Z,16.53
2018-11-25T21:20:31.373Z,16.77
2018-11-25T21:23:00.351Z,15.93
2018-11-25T21:25:29.327Z,16.47
2018-11-25T21:27:58.197Z,17.33
2018-11-25T21:30:27.661Z,16.63
2018-11-25T21:32:58.212Z,17.20
2018-11-25T21:35:26.604Z,17.80
2018-11-25T21:37:54.859Z,16.67
2018-11-25T21:40:24.100Z,16.30
2018-11-25T21:42:54.718Z,17.20
2018-11-25T21:45:30.752Z,17.60
2018-11-25T21:47:59.170Z,17.50
2018-11-25T21:50:28.742Z,16.70
2018-11-25T21:52:56.947Z,17.37
2018-11-25T21:55:25.858Z,17.10
2018-11-25T21:57:54.069Z,16.30
2018-11-25T22:00:23.276Z,17.67
2018-11-25T22:03:54.102Z,15.67
2018-11-25T22:06:22.366Z,15.87
2018-11-25T22:08:50.745Z,16.07
2018-11-25T22:11:18.940Z,15.07
2018-11-25T22:13:47.364Z,13.63
2018-11-25T22:16:15.744Z,13.93
2018-11-25T22:18:44.878Z,13.07
2018-11-25T22:21:13.074Z,11.93
2018-11-25T22:23:41.450Z,13.27
2018-11-25T22:26:09.671Z,12.63
2018-11-25T22:28:37.883Z,13.03
2018-11-25T22:31:08.812Z,13.37
2018-11-25T22:33:39.316Z,13.73
2018-11-25T22:36:07.700Z,13.43
2018-11-25T22:38:36.464Z,12.60
2018-11-25T22:41:04.990Z,12.90
2018-11-25T22:43:33.976Z,13.57
2018-11-25T22:46:02.238Z,13.23
2018-11-25T22:48:30.517Z,14.67
2018-11-25T22:50:58.710Z,12.30
2018-11-25T22:53:26.933Z,13.03
2018-11-25T22:55:56.486Z,14.00
2018-11-25T22:58:24.735Z,13.33
2018-11-25T23:00:53.850Z,14.00
2018-11-25T23:03:22.208Z,13.47
2018-11-25T23:06:01.560Z,12.47
2018-11-25T23:08:29.728Z,13.87
2018-11-25T23:10:57.905Z,13.47
2018-11-25T23:13:26.081Z,13.33
2018-11-25T23:15:54.391Z,14.10
2018-11-25T23:18:22.535Z,13.40
2018-11-25T23:20:51.984Z,11.70
2018-11-25T23:23:20.467Z,12.93
2018-11-25T23:25:48.691Z,13.37
2018-11-25T23:28:16.864Z,12.13
2018-11-25T23:30:45.204Z,13.70
2018-11-25T23:33:13.350Z,12.03
2018-11-25T23:35:41.602Z,12.27
2018-11-25T23:38:09.846Z,12.23
2018-11-25T23:40:38.040Z,12.33
2018-11-25T23:43:07.026Z,11.77
2018-11-25T23:45:35.306Z,11.30
2018-11-25T23:48:03.504Z,12.43
2018-11-25T23:50:31.744Z,11.80
2018-11-25T23:52:59.929Z,11.27
2018-11-25T23:55:28.302Z,11.97
2018-11-25T23:57:57.043Z,10.93
